createdAt,value
2022-12-29T00:02:28.818Z,96887.10
2022-12-29T00:12:51.579Z,96895.91
2022-12-29T00:23:13.365Z,96898.59
2022-12-29T00:33:37.677Z,96893.17
2022-12-29T00:43:58.755Z,96899.86
2022-12-29T00:54:01.494Z,96889.69
2022-12-29T01:04:05.057Z,96883.52
2022-12-29T01:14:07.913Z,96903.20
2022-12-29T01:24:11.063Z,96903.13
2022-12-29T01:34:14.271Z,96892.34
2022-12-29T01:44:48.401Z,96889.45
2022-12-29T01:54:55.897Z,96872.15
2022-12-29T02:05:04.460Z,96863.05
2022-12-29T02:15:08.590Z,96860.87
2022-12-29T02:25:17.633Z,96852.52
2022-12-29T02:35:26.031Z,96836.45
2022-12-29T02:46:16.396Z,96838.74
2022-12-29T02:56:19.536Z,96827.77
2022-12-29T03:07:01.858Z,96812.88
2022-12-29T03:17:11.636Z,96813.48
2022-12-29T03:27:20.142Z,96806.23
2022-12-29T03:37:28.736Z,96794.20
2022-12-29T03:47:31.365Z,96771.96
2022-12-29T03:57:34.211Z,96774.76
2022-12-29T04:07:40.016Z,96768.83
2022-12-29T04:17:43.481Z,96763.39
2022-12-29T04:27:46.193Z,96789.10
2022-12-29T04:38:11.849Z,96785.09
2022-12-29T04:48:16.079Z,96785.17
2022-12-29T04:58:38.781Z,96783.73
2022-12-29T05:08:41.848Z,96770.80
2022-12-29T05:18:44.977Z,96768.67
2022-12-29T05:28:47.726Z,96765.15
2022-12-29T05:38:54.630Z,96759.02
2022-12-29T05:48:57.404Z,96752.08
2022-12-29T05:59:06.501Z,96745.31
2022-12-29T06:09:12.017Z,96741.54
2022-12-29T06:19:14.945Z,96746.08
2022-12-29T06:29:18.718Z,96753.53
2022-12-29T06:39:21.969Z,96777.04
2022-12-29T06:49:37.036Z,96800.45
2022-12-29T06:59:39.545Z,96800.05
2022-12-29T07:09:42.067Z,96785.80
2022-12-29T07:19:45.528Z,96778.45
2022-12-29T07:29:48.070Z,96775.49
2022-12-29T07:39:50.708Z,96777.77
2022-12-29T07:49:53.449Z,96783.15
2022-12-29T07:59:56.156Z,96790.66
2022-12-29T08:09:58.943Z,96785.92
2022-12-29T08:20:02.450Z,96772.84
2022-12-29T08:30:05.957Z,96779.91
2022-12-29T08:40:09.759Z,96770.13
2022-12-29T08:50:16.472Z,96766.40
2022-12-29T09:00:20.954Z,96753.75
2022-12-29T09:10:24.566Z,96757.48
2022-12-29T09:20:27.148Z,96755.73
2022-12-29T09:30:30.298Z,96749.23
2022-12-29T09:40:34.399Z,96740.49
2022-12-29T09:50:39.871Z,96724.45
2022-12-29T10:00:55.643Z,96732.65
2022-12-29T10:11:22.624Z,96724.45
2022-12-29T10:21:51.203Z,96708.20
2022-12-29T10:32:41.389Z,96700.30
2022-12-29T10:42:51.408Z,96714.20
2022-12-29T10:52:57.204Z,96706.80
2022-12-29T11:03:21.542Z,96713.24
2022-12-29T11:13:39.477Z,96699.16
2022-12-29T11:23:43.210Z,96678.70
2022-12-29T11:33:46.463Z,96669.70
2022-12-29T11:44:13.638Z,96667.14
2022-12-29T11:54:32.865Z,96660.61
2022-12-29T12:04:38.048Z,96657.60
2022-12-29T12:14:55.263Z,96654.14
2022-12-29T12:25:24.707Z,96651.46
2022-12-29T12:35:42.216Z,96655.54
2022-12-29T12:46:11.583Z,96656.24
2022-12-29T12:56:43.029Z,96652.13
2022-12-29T13:07:16.690Z,96657.63
2022-12-29T13:17:43.284Z,96664.88
2022-12-29T13:28:13.702Z,96669.05
2022-12-29T13:38:45.250Z,96666.83
2022-12-29T13:48:54.247Z,96664.71
2022-12-29T13:59:21.647Z,96670.13
2022-12-29T14:09:51.804Z,96672.44
2022-12-29T14:19:55.469Z,96664.17
2022-12-29T14:29:59.145Z,96665.62
2022-12-29T14:40:25.736Z,96652.25
2022-12-29T14:50:45.887Z,96666.23
2022-12-29T15:01:00.100Z,96671.05
2022-12-29T15:11:19.618Z,96662.91
2022-12-29T15:21:30.942Z,96673.80
2022-12-29T15:31:33.799Z,96676.85
2022-12-29T15:42:00.635Z,96690.22
2022-12-29T15:52:08.961Z,96691.85
2022-12-29T16:02:12.623Z,96696.58
2022-12-29T16:12:22.729Z,96699.84
2022-12-29T16:22:33.553Z,96698.91
2022-12-29T16:32:48.329Z,96698.98
2022-12-29T16:42:55.343Z,96698.84
2022-12-29T16:52:58.887Z,96706.38
2022-12-29T17:03:03.034Z,96709.95
2022-12-29T17:13:06.625Z,96706.42
2022-12-29T17:23:19.868Z,96709.47
2022-12-29T17:34:15.969Z,96709.45
2022-12-29T17:44:21.307Z,96718.61
2022-12-29T17:54:26.845Z,96728.86
2022-12-29T18:04:30.131Z,96728.46
2022-12-29T18:14:33.835Z,96734.89
2022-12-29T18:24:36.748Z,96735.59
2022-12-29T18:34:41.650Z,96744.46
2022-12-29T18:44:44.768Z,96741.79
2022-12-29T18:54:47.641Z,96732.90
2022-12-29T19:18:41.924Z,96713.22
2022-12-29T19:28:28.314Z,96712.81
2022-12-29T19:39:14.461Z,96714.58
2022-12-29T19:49:21.407Z,96728.14
2022-12-29T19:59:26.722Z,96719.70
2022-12-29T20:09:32.102Z,96713.43
2022-12-29T20:19:36.775Z,96715.02
2022-12-29T20:29:42.823Z,96713.35
2022-12-29T20:39:45.965Z,96695.86
2022-12-29T20:49:48.760Z,96698.92
2022-12-29T20:59:51.647Z,96706.35
2022-12-29T21:09:55.121Z,96718.06
2022-12-29T21:19:58.786Z,96714.59
2022-12-29T21:30:01.481Z,96710.48
2022-12-29T21:40:05.529Z,96706.77
2022-12-29T21:50:08.557Z,96713.00
2022-12-29T22:00:30.638Z,96703.91
2022-12-29T22:10:52.117Z,96714.61
2022-12-29T22:20:54.926Z,96714.58
2022-12-29T22:30:57.967Z,96714.23
2022-12-29T22:41:01.187Z,96718.70
2022-12-29T22:51:04.680Z,96718.63
2022-12-29T23:01:08.604Z,96719.58
2022-12-29T23:11:12.384Z,96719.23
2022-12-29T23:21:17.521Z,96721.81
2022-12-29T23:31:21.749Z,96714.44
2022-12-29T23:41:25.042Z,96712.77
2022-12-29T23:51:27.781Z,96705.35
